Time;durP1;ratioP1;P1;durP2;ratioP2;P2;SDS_P1;SDS_P2;PMS_P1;PMS_P2;Temp;Humidity;BMP_temperature;BMP_pressure;BME280_temperature;BME280_humidity;BME280_pressure;Samples;Min_cycle;Max_cycle;Signal;HPM_P1;HPM_P2
2022/05/20 00:00:53;;;;;;;11.18;7.00;;;;;;;;;;5037119;28;20485;-53
2022/05/20 00:03:26;;;;;;;16.23;8.07;;;;;;;;;;5037657;28;20057;-48
2022/05/20 00:05:54;;;;;;;15.23;8.07;;;;;;;;;;5036488;28;20045;-49
2022/05/20 00:08:20;;;;;;;16.48;8.50;;;;;;;;;;5038189;28;20390;-51
2022/05/20 00:10:54;;;;;;;16.50;8.80;;;;;;;;;;5037299;28;20132;-46
2022/05/20 00:13:21;;;;;;;21.08;9.18;;;;;;;;;;5041794;28;20911;-50
2022/05/20 00:15:48;;;;;;;14.07;8.60;;;;;;;;;;5037069;28;20381;-61
2022/05/20 00:18:21;;;;;;;19.40;8.50;;;;;;;;;;5039158;28;20066;-54
2022/05/20 00:20:48;;;;;;;20.27;9.73;;;;;;;;;;5039191;28;20099;-51
2022/05/20 00:23:14;;;;;;;20.00;9.23;;;;;;;;;;5040686;28;20378;-48
2022/05/20 00:25:47;;;;;;;23.10;9.20;;;;;;;;;;5038573;28;20103;-52
2022/05/20 00:28:14;;;;;;;19.83;9.98;;;;;;;;;;5042576;28;20483;-49
2022/05/20 00:30:41;;;;;;;18.33;9.45;;;;;;;;;;5042797;28;20142;-49
2022/05/20 00:33:14;;;;;;;20.10;9.70;;;;;;;;;;5038096;28;20072;-59
2022/05/20 00:35:47;;;;;;;19.60;9.88;;;;;;;;;;5037567;28;20091;-51
2022/05/20 00:38:27;;;;;;;22.60;9.70;;;;;;;;;;5040592;28;20056;-50
2022/05/20 00:40:55;;;;;;;22.27;10.25;;;;;;;;;;5039717;28;20045;-51
2022/05/20 00:43:35;;;;;;;16.95;10.02;;;;;;;;;;5039906;28;20119;-51
2022/05/20 00:46:05;;;;;;;19.75;10.05;;;;;;;;;;5038434;28;20425;-50
2022/05/20 00:48:39;;;;;;;21.10;10.52;;;;;;;;;;5039517;28;20132;-50
2022/05/20 00:51:08;;;;;;;21.80;10.60;;;;;;;;;;5036948;28;20049;-52
2022/05/20 00:53:51;;;;;;;22.23;10.27;;;;;;;;;;5041255;28;20492;-52
2022/05/20 00:56:26;;;;;;;23.80;10.18;;;;;;;;;;5039759;28;20144;-53
2022/05/20 00:58:53;;;;;;;24.08;10.30;;;;;;;;;;5042640;28;20049;-57
2022/05/20 01:01:19;;;;;;;17.90;10.27;;;;;;;;;;5038326;28;20092;-56
2022/05/20 01:03:53;;;;;;;14.23;8.63;;;;;;;;;;5036641;28;20110;-57
2022/05/20 01:06:20;;;;;;;17.38;8.27;;;;;;;;;;5039216;28;20336;-56
2022/05/20 01:08:46;;;;;;;17.50;9.48;;;;;;;;;;5038160;28;20076;-55
2022/05/20 01:11:19;;;;;;;24.23;11.00;;;;;;;;;;5039609;28;20104;-57
2022/05/20 01:13:48;;;;;;;15.15;9.32;;;;;;;;;;5037461;28;20142;-60
2022/05/20 01:16:15;;;;;;;17.27;9.75;;;;;;;;;;5034985;28;20464;-60
2022/05/20 01:18:53;;;;;;;16.67;9.43;;;;;;;;;;5040380;28;20053;-60
2022/05/20 01:21:20;;;;;;;18.05;9.75;;;;;;;;;;5038892;28;20058;-59
2022/05/20 01:23:46;;;;;;;16.23;9.33;;;;;;;;;;5041957;28;20405;-60
2022/05/20 01:26:20;;;;;;;21.20;9.80;;;;;;;;;;5041968;28;20076;-60
2022/05/20 01:28:46;;;;;;;18.10;9.02;;;;;;;;;;5035985;28;20606;-59
2022/05/20 01:31:14;;;;;;;22.58;9.55;;;;;;;;;;5037892;28;20127;-60
2022/05/20 01:33:49;;;;;;;16.50;9.15;;;;;;;;;;5040409;28;20598;-57
2022/05/20 01:36:23;;;;;;;18.35;8.70;;;;;;;;;;5010756;28;20054;-57
2022/05/20 01:38:59;;;;;;;20.25;8.63;;;;;;;;;;5016746;28;20088;-57
2022/05/20 01:41:31;;;;;;;11.65;6.95;;;;;;;;;;5018246;28;20187;-58
2022/05/20 01:44:13;;;;;;;14.07;7.28;;;;;;;;;;5016930;28;20053;-58
2022/05/20 01:46:41;;;;;;;14.25;7.93;;;;;;;;;;5021311;28;20355;-56
2022/05/20 01:49:32;;;;;;;14.43;7.95;;;;;;;;;;5020461;28;20041;-50
2022/05/20 01:52:01;;;;;;;13.55;7.88;;;;;;;;;;5021545;28;20099;-56
2022/05/20 01:54:37;;;;;;;13.35;7.15;;;;;;;;;;5017728;28;21374;-56
2022/05/20 01:57:07;;;;;;;14.63;7.57;;;;;;;;;;5018851;28;20590;-57
2022/05/20 01:59:43;;;;;;;13.80;7.30;;;;;;;;;;5019915;28;20045;-56
2022/05/20 02:02:25;;;;;;;11.80;7.25;;;;;;;;;;5018775;28;20528;-58
2022/05/20 02:05:02;;;;;;;11.45;7.30;;;;;;;;;;5015530;28;20123;-58
2022/05/20 02:07:30;;;;;;;12.65;6.38;;;;;;;;;;5015766;28;20050;-59
2022/05/20 02:10:05;;;;;;;13.20;7.10;;;;;;;;;;5017895;28;20046;-54
2022/05/20 02:12:41;;;;;;;13.05;6.90;;;;;;;;;;5018784;28;20489;-56
2022/05/20 02:15:11;;;;;;;14.85;6.70;;;;;;;;;;5017823;28;20077;-57
2022/05/20 02:17:39;;;;;;;11.30;6.63;;;;;;;;;;5016841;28;20045;-56
2022/05/20 02:20:15;;;;;;;9.40;5.93;;;;;;;;;;5017493;28;20107;-56
2022/05/20 02:22:44;;;;;;;13.27;6.00;;;;;;;;;;5018926;28;20084;-56
2022/05/20 02:25:12;;;;;;;14.15;5.30;;;;;;;;;;5017792;28;20084;-56
2022/05/20 02:27:48;;;;;;;12.63;5.28;;;;;;;;;;5017958;28;20053;-50
2022/05/20 02:30:16;;;;;;;12.02;6.40;;;;;;;;;;5019350;28;20041;-59
2022/05/20 02:32:50;;;;;;;8.50;6.03;;;;;;;;;;5016826;28;20116;-59
2022/05/20 02:35:29;;;;;;;7.93;5.68;;;;;;;;;;5027749;28;20114;-59
2022/05/20 02:38:03;;;;;;;12.77;6.13;;;;;;;;;;5038398;28;20099;-59
2022/05/20 02:40:37;;;;;;;15.13;6.80;;;;;;;;;;5038463;28;20080;-59
2022/05/20 02:43:03;;;;;;;14.68;6.68;;;;;;;;;;5037515;28;20049;-59
2022/05/20 02:45:30;;;;;;;14.25;7.20;;;;;;;;;;5037546;28;20522;-52
2022/05/20 02:48:03;;;;;;;10.48;6.75;;;;;;;;;;5041895;28;20071;-51
2022/05/20 02:50:29;;;;;;;13.77;6.53;;;;;;;;;;5036359;28;20192;-59
2022/05/20 02:52:56;;;;;;;12.30;6.80;;;;;;;;;;5037847;28;20054;-59
2022/05/20 02:55:29;;;;;;;11.50;6.70;;;;;;;;;;5041620;28;20076;-59
2022/05/20 02:57:56;;;;;;;10.07;6.38;;;;;;;;;;5036003;28;20236;-59
2022/05/20 03:05:59;;;;;;;11.82;7.10;;;;;;;;;;5035288;28;20519;-48
2022/05/20 03:08:33;;;;;;;17.27;7.93;;;;;;;;;;5034733;28;20504;-50
2022/05/20 03:11:00;;;;;;;18.58;7.60;;;;;;;;;;5037329;28;20089;-50
2022/05/20 03:13:26;;;;;;;10.60;7.17;;;;;;;;;;5028475;28;20051;-51
2022/05/20 03:16:00;;;;;;;14.10;7.55;;;;;;;;;;5036320;28;20863;-49
2022/05/20 03:18:27;;;;;;;15.00;8.05;;;;;;;;;;5025650;28;20060;-50
2022/05/20 03:20:53;;;;;;;14.20;8.40;;;;;;;;;;5035003;28;20152;-50
2022/05/20 03:23:27;;;;;;;18.05;9.35;;;;;;;;;;5038209;28;20061;-59
2022/05/20 03:25:53;;;;;;;18.05;8.80;;;;;;;;;;5038910;28;20041;-52
2022/05/20 03:28:20;;;;;;;15.18;8.38;;;;;;;;;;5035037;28;20072;-51
2022/05/20 03:30:53;;;;;;;17.23;8.63;;;;;;;;;;5031131;28;20084;-49
2022/05/20 03:33:20;;;;;;;15.70;8.45;;;;;;;;;;5039918;28;20049;-51
2022/05/20 03:35:47;;;;;;;18.70;8.25;;;;;;;;;;5036817;28;20053;-49
2022/05/20 03:38:20;;;;;;;23.40;9.60;;;;;;;;;;5039366;28;20091;-53
2022/05/20 03:40:46;;;;;;;17.33;8.70;;;;;;;;;;5033864;28;20088;-53
2022/05/20 03:43:13;;;;;;;16.23;8.48;;;;;;;;;;5036517;28;20085;-51
2022/05/20 03:45:47;;;;;;;15.27;8.73;;;;;;;;;;5040430;28;20057;-55
2022/05/20 03:48:14;;;;;;;;;;;;;;;;;;5037159;28;20049;-57
2022/05/20 03:50:44;;;;;;;13.55;7.25;;;;;;;;;;5041281;28;19927;-55
2022/05/20 03:53:18;;;;;;;12.95;7.90;;;;;;;;;;5042323;28;20185;-57
2022/05/20 03:55:44;;;;;;;16.90;8.60;;;;;;;;;;5041487;28;20486;-54
2022/05/20 03:58:10;;;;;;;15.25;8.68;;;;;;;;;;5041670;28;20088;-54
2022/05/20 04:03:29;;;;;;;19.52;8.43;;;;;;;;;;5039389;28;20292;-51
2022/05/20 04:06:02;;;;;;;14.25;8.25;;;;;;;;;;5039277;28;20073;-55
2022/05/20 04:08:28;;;;;;;19.98;8.25;;;;;;;;;;5044816;28;20465;-56
2022/05/20 04:10:55;;;;;;;18.63;8.93;;;;;;;;;;5038535;28;20564;-55
2022/05/20 04:13:28;;;;;;;22.95;8.80;;;;;;;;;;5038116;28;20081;-55
2022/05/20 04:15:54;;;;;;;19.55;9.68;;;;;;;;;;5036922;28;20077;-56
2022/05/20 04:18:21;;;;;;;20.98;9.82;;;;;;;;;;5038352;28;20060;-55
2022/05/20 04:20:54;;;;;;;19.40;9.20;;;;;;;;;;5023107;28;20544;-53
2022/05/20 04:23:21;;;;;;;18.40;9.15;;;;;;;;;;5037338;28;20084;-56
2022/05/20 04:25:47;;;;;;;20.60;10.55;;;;;;;;;;5037312;28;20104;-54
2022/05/20 04:28:20;;;;;;;20.02;11.48;;;;;;;;;;5039249;28;20087;-54
2022/05/20 04:30:47;;;;;;;20.50;10.88;;;;;;;;;;5037250;28;20128;-47
2022/05/20 04:33:13;;;;;;;20.23;10.38;;;;;;;;;;5038576;28;20095;-51
2022/05/20 04:35:59;;;;;;;21.02;10.32;;;;;;;;;;5041102;28;20140;-52
2022/05/20 04:38:33;;;;;;;24.05;9.90;;;;;;;;;;5037392;28;20110;-47
2022/05/20 04:46:56;;;;;;;21.00;10.70;;;;;;;;;;5038621;28;20049;-54
2022/05/20 04:49:23;;;;;;;21.23;10.73;;;;;;;;;;5039133;28;20053;-54
2022/05/20 04:51:57;;;;;;;19.50;10.30;;;;;;;;;;5043442;28;20053;-54
2022/05/20 04:57:18;;;;;;;17.98;9.63;;;;;;;;;;5039429;28;20146;-55
2022/05/20 04:59:45;;;;;;;20.50;9.75;;;;;;;;;;5038853;28;20053;-59
2022/05/20 05:02:13;;;;;;;19.15;10.57;;;;;;;;;;5039119;28;20986;-53
2022/05/20 05:04:46;;;;;;;20.63;10.35;;;;;;;;;;5037944;28;20049;-56
2022/05/20 05:07:13;;;;;;;18.40;10.68;;;;;;;;;;5040715;28;20075;-55
2022/05/20 05:09:40;;;;;;;17.90;9.25;;;;;;;;;;5040646;28;20072;-56
2022/05/20 05:12:14;;;;;;;18.77;9.57;;;;;;;;;;5039295;28;20073;-55
2022/05/20 05:14:43;;;;;;;19.95;10.20;;;;;;;;;;5038176;28;20094;-55
2022/05/20 05:17:10;;;;;;;24.45;10.45;;;;;;;;;;5040253;28;20076;-59
2022/05/20 05:19:46;;;;;;;16.60;8.50;;;;;;;;;;5039369;28;20079;-49
2022/05/20 05:22:13;;;;;;;14.20;9.13;;;;;;;;;;5038950;28;20045;-56
2022/05/20 05:24:39;;;;;;;20.40;10.35;;;;;;;;;;5037181;28;20072;-57
2022/05/20 05:27:12;;;;;;;22.85;10.02;;;;;;;;;;5041281;28;20048;-56
2022/05/20 05:29:39;;;;;;;15.57;9.98;;;;;;;;;;5039054;28;20084;-57
2022/05/20 05:32:05;;;;;;;15.77;10.45;;;;;;;;;;5035524;28;20045;-53
2022/05/20 05:34:53;;;;;;;13.65;8.32;;;;;;;;;;5042081;28;20053;-56
2022/05/20 05:37:33;;;;;;;18.98;8.68;;;;;;;;;;5018783;28;20057;-59
2022/05/20 05:40:10;;;;;;;14.30;8.27;;;;;;;;;;5016740;28;20088;-57
2022/05/20 05:42:36;;;;;;;17.23;7.30;;;;;;;;;;5017794;28;20081;-57
2022/05/20 05:45:05;;;;;;;23.37;8.77;;;;;;;;;;5019033;28;20053;-57
2022/05/20 05:47:38;;;;;;;18.67;8.57;;;;;;;;;;5016327;28;20324;-57
2022/05/20 05:50:05;;;;;;;18.85;8.95;;;;;;;;;;5020409;28;20081;-54
2022/05/20 05:52:32;;;;;;;19.80;8.83;;;;;;;;;;5015092;28;20085;-55
2022/05/20 05:55:05;;;;;;;15.75;8.52;;;;;;;;;;5018525;28;20336;-59
2022/05/20 05:57:32;;;;;;;19.45;8.40;;;;;;;;;;5008825;28;20080;-50
2022/05/20 05:59:59;;;;;;;19.75;9.73;;;;;;;;;;5019377;28;20714;-52
2022/05/20 06:02:32;;;;;;;19.48;8.68;;;;;;;;;;5018619;28;20095;-52
2022/05/20 06:04:59;;;;;;;16.55;8.15;;;;;;;;;;5016928;28;20505;-48
2022/05/20 06:07:25;;;;;;;21.42;8.73;;;;;;;;;;5019888;28;20041;-53
2022/05/20 06:09:59;;;;;;;17.02;7.78;;;;;;;;;;5019933;28;20064;-49
2022/05/20 06:12:25;;;;;;;28.95;8.85;;;;;;;;;;5020795;28;20041;-46
2022/05/20 06:14:52;;;;;;;15.43;8.40;;;;;;;;;;5021788;28;20049;-59
2022/05/20 06:17:25;;;;;;;22.92;9.07;;;;;;;;;;5017234;28;20089;-52
2022/05/20 06:19:52;;;;;;;16.88;9.13;;;;;;;;;;5015161;28;20061;-59
2022/05/20 06:22:18;;;;;;;19.50;9.27;;;;;;;;;;5018158;28;20092;-59
2022/05/20 06:24:51;;;;;;;26.67;10.65;;;;;;;;;;5019068;28;20115;-59
2022/05/20 06:27:18;;;;;;;21.52;9.77;;;;;;;;;;5016720;28;20494;-59
2022/05/20 06:29:48;;;;;;;16.30;8.65;;;;;;;;;;5016392;28;20077;-59
2022/05/20 06:32:21;;;;;;;22.50;9.95;;;;;;;;;;5017422;28;20297;-58
2022/05/20 06:40:44;;;;;;;23.15;10.18;;;;;;;;;;4973403;28;20055;-50
2022/05/20 06:43:18;;;;;;;19.88;9.68;;;;;;;;;;5038741;28;20555;-51
2022/05/20 06:45:45;;;;;;;22.80;10.27;;;;;;;;;;5027568;28;20433;-52
2022/05/20 06:48:41;;;;;;;23.15;11.35;;;;;;;;;;5039617;28;20499;-48
2022/05/20 06:51:17;;;;;;;23.90;10.45;;;;;;;;;;5038587;28;20453;-49
2022/05/20 06:53:43;;;;;;;24.25;10.18;;;;;;;;;;5037222;28;20045;-57
2022/05/20 06:56:11;;;;;;;22.60;11.00;;;;;;;;;;5038381;28;20076;-52
2022/05/20 06:58:44;;;;;;;21.60;9.60;;;;;;;;;;5038637;28;20048;-59
2022/05/20 07:01:12;;;;;;;28.33;10.32;;;;;;;;;;5035854;28;20048;-59
2022/05/20 07:03:38;;;;;;;26.20;9.73;;;;;;;;;;5039957;28;20049;-59
2022/05/20 07:06:12;;;;;;;15.80;8.25;;;;;;;;;;5039413;28;20535;-59
2022/05/20 07:08:39;;;;;;;16.40;7.57;;;;;;;;;;5034332;28;20057;-59
2022/05/20 07:11:06;;;;;;;23.63;8.18;;;;;;;;;;5035484;28;20049;-59
2022/05/20 07:13:39;;;;;;;16.13;7.70;;;;;;;;;;5035866;28;20868;-59
2022/05/20 07:16:06;;;;;;;14.68;8.32;;;;;;;;;;5036085;28;20042;-54
2022/05/20 07:18:34;;;;;;;16.40;7.63;;;;;;;;;;5034828;28;20115;-54
2022/05/20 07:21:07;;;;;;;18.52;7.32;;;;;;;;;;5041300;28;20049;-51
2022/05/20 07:23:34;;;;;;;13.82;8.18;;;;;;;;;;5041996;28;20080;-55
2022/05/20 07:26:01;;;;;;;16.00;7.03;;;;;;;;;;5041246;28;20115;-51
2022/05/20 07:28:35;;;;;;;16.10;7.50;;;;;;;;;;5028965;28;20100;-52
2022/05/20 07:31:09;;;;;;;16.48;7.45;;;;;;;;;;5042454;28;20513;-58
2022/05/20 07:33:43;;;;;;;17.15;6.70;;;;;;;;;;5044251;28;20109;-58
2022/05/20 07:36:16;;;;;;;13.65;6.97;;;;;;;;;;5039622;28;20540;-59
2022/05/20 07:38:56;;;;;;;12.20;6.22;;;;;;;;;;5041323;28;20084;-58
2022/05/20 07:41:23;;;;;;;24.45;6.72;;;;;;;;;;5037111;28;20064;-58
2022/05/20 07:43:56;;;;;;;16.52;6.28;;;;;;;;;;5042446;28;20077;-59
2022/05/20 07:46:23;;;;;;;13.23;6.07;;;;;;;;;;5043539;28;20095;-58
2022/05/20 07:48:49;;;;;;;12.07;6.28;;;;;;;;;;5041210;28;20049;-58
2022/05/20 07:51:23;;;;;;;12.38;6.13;;;;;;;;;;5039080;28;20057;-52
2022/05/20 07:53:54;;;;;;;16.95;6.53;;;;;;;;;;5040010;28;20050;-50
2022/05/20 07:56:26;;;;;;;18.83;6.88;;;;;;;;;;5040836;28;20049;-53
2022/05/20 07:59:04;;;;;;;10.68;6.20;;;;;;;;;;5037167;28;20084;-50
2022/05/20 08:01:32;;;;;;;14.57;7.00;;;;;;;;;;5039596;28;20084;-54
2022/05/20 08:06:54;;;;;;;13.93;6.30;;;;;;;;;;5041358;28;20555;-53
2022/05/20 08:09:24;;;;;;;12.52;6.22;;;;;;;;;;5038214;28;20057;-47
2022/05/20 08:11:51;;;;;;;14.80;5.75;;;;;;;;;;5043222;28;20045;-51
2022/05/20 08:14:26;;;;;;;11.85;5.70;;;;;;;;;;5039550;28;20056;-51
2022/05/20 08:16:53;;;;;;;10.93;5.78;;;;;;;;;;5044063;28;20061;-52
2022/05/20 08:19:19;;;;;;;10.52;5.47;;;;;;;;;;5043903;28;20110;-49
2022/05/20 08:21:52;;;;;;;9.40;5.53;;;;;;;;;;5040159;28;20508;-53
2022/05/20 08:24:19;;;;;;;11.60;5.70;;;;;;;;;;5039515;28;20088;-55
2022/05/20 08:26:46;;;;;;;9.82;5.63;;;;;;;;;;5041072;28;20077;-55
2022/05/20 08:29:19;;;;;;;12.30;6.00;;;;;;;;;;5039376;28;20873;-54
2022/05/20 08:31:46;;;;;;;9.02;5.75;;;;;;;;;;5041026;28;20057;-57
2022/05/20 08:34:13;;;;;;;10.18;5.78;;;;;;;;;;5042215;28;20059;-58
2022/05/20 08:36:53;;;;;;;9.02;5.43;;;;;;;;;;5039203;28;20072;-58
2022/05/20 08:39:19;;;;;;;9.10;5.30;;;;;;;;;;5043060;28;20574;-58
2022/05/20 08:41:47;;;;;;;10.77;5.53;;;;;;;;;;5040540;28;20049;-57
2022/05/20 08:44:21;;;;;;;9.40;5.65;;;;;;;;;;5039642;28;20084;-57
2022/05/20 08:46:48;;;;;;;8.50;5.47;;;;;;;;;;5043536;28;20073;-52
2022/05/20 08:49:16;;;;;;;16.45;5.30;;;;;;;;;;5041463;28;20232;-58
2022/05/20 08:51:52;;;;;;;10.77;5.05;;;;;;;;;;5036819;28;20610;-58
2022/05/20 08:54:19;;;;;;;15.13;5.50;;;;;;;;;;5040203;28;20512;-58
2022/05/20 08:56:46;;;;;;;14.95;5.45;;;;;;;;;;5041949;28;20048;-58
2022/05/20 08:59:21;;;;;;;10.73;5.25;;;;;;;;;;5036826;28;20100;-58
2022/05/20 09:01:50;;;;;;;11.00;5.32;;;;;;;;;;5037827;28;20092;-58
2022/05/20 09:04:22;;;;;;;11.85;6.10;;;;;;;;;;5038223;28;20408;-58
2022/05/20 09:06:58;;;;;;;9.15;5.25;;;;;;;;;;5038029;28;20073;-55
2022/05/20 09:09:45;;;;;;;8.20;4.55;;;;;;;;;;5038851;28;20068;-53
2022/05/20 09:12:24;;;;;;;12.10;4.97;;;;;;;;;;5042709;28;20056;-55
2022/05/20 09:18:00;;;;;;;11.52;4.70;;;;;;;;;;5037139;28;20563;-53
2022/05/20 09:20:27;;;;;;;8.13;4.70;;;;;;;;;;5035713;28;20483;-51
2022/05/20 09:23:07;;;;;;;9.95;5.07;;;;;;;;;;5038438;28;20080;-52
2022/05/20 09:25:34;;;;;;;10.68;4.63;;;;;;;;;;5038510;28;20091;-53
2022/05/20 09:28:16;;;;;;;9.35;4.82;;;;;;;;;;5037188;28;20053;-56
2022/05/20 09:30:46;;;;;;;10.82;4.28;;;;;;;;;;5038416;28;20137;-55
2022/05/20 09:33:22;;;;;;;9.73;4.25;;;;;;;;;;5038335;28;20428;-55
2022/05/20 09:36:06;;;;;;;10.63;4.88;;;;;;;;;;5038695;28;20065;-51
2022/05/20 09:38:41;;;;;;;8.80;4.55;;;;;;;;;;5038470;28;20059;-56
2022/05/20 09:41:15;;;;;;;7.53;3.67;;;;;;;;;;5038965;28;20107;-56
2022/05/20 09:43:56;;;;;;;9.88;4.63;;;;;;;;;;5041783;28;20092;-49
2022/05/20 09:46:32;;;;;;;8.27;4.18;;;;;;;;;;5033426;28;20464;-54
2022/05/20 09:49:11;;;;;;;10.43;4.85;;;;;;;;;;5038401;28;20050;-47
2022/05/20 09:51:40;;;;;;;11.52;4.30;;;;;;;;;;5038003;28;20081;-51
2022/05/20 09:54:13;;;;;;;8.23;3.95;;;;;;;;;;5037897;28;20107;-47
2022/05/20 09:56:43;;;;;;;6.97;3.97;;;;;;;;;;5037515;28;20045;-51
2022/05/20 09:59:13;;;;;;;8.18;3.70;;;;;;;;;;5038908;28;20084;-53
2022/05/20 10:02:09;;;;;;;8.50;3.90;;;;;;;;;;5038776;28;20536;-49
2022/05/20 10:04:39;;;;;;;9.38;3.92;;;;;;;;;;5035814;28;20085;-58
2022/05/20 10:07:16;;;;;;;8.65;3.95;;;;;;;;;;5036107;28;20461;-58
2022/05/20 10:09:47;;;;;;;9.13;4.03;;;;;;;;;;5038409;28;20045;-57
2022/05/20 10:12:20;;;;;;;;;;;;;;;;;;5039098;28;20513;-56
2022/05/20 10:14:46;;;;;;;12.10;3.97;;;;;;;;;;5037199;28;19921;-57
2022/05/20 10:17:20;;;;;;;10.07;4.13;;;;;;;;;;5038358;28;20115;-57
2022/05/20 10:20:08;;;;;;;7.22;4.07;;;;;;;;;;5037140;28;20574;-58
2022/05/20 10:22:49;;;;;;;8.65;3.90;;;;;;;;;;5040442;28;20484;-53
2022/05/20 10:25:30;;;;;;;13.93;4.00;;;;;;;;;;5038709;28;20076;-52
2022/05/20 10:27:57;;;;;;;8.55;4.60;;;;;;;;;;5037649;28;20064;-56
2022/05/20 10:33:27;;;;;;;10.77;4.25;;;;;;;;;;5037067;28;20045;-58
2022/05/20 10:36:20;;;;;;;10.13;4.28;;;;;;;;;;5037097;28;20072;-57
2022/05/20 10:38:58;;;;;;;5.80;3.85;;;;;;;;;;5038665;28;20049;-56
2022/05/20 10:42:29;;;;;;;8.63;4.07;;;;;;;;;;5034411;28;20049;-53
2022/05/20 10:48:34;;;;;;;7.40;3.35;;;;;;;;;;4970333;28;20047;-53
2022/05/20 10:51:19;;;;;;;8.10;3.72;;;;;;;;;;5035792;28;20168;-53
2022/05/20 10:54:21;;;;;;;15.50;4.25;;;;;;;;;;5036585;28;20053;-50
2022/05/20 10:56:57;;;;;;;8.73;3.60;;;;;;;;;;5037375;28;20080;-47
2022/05/20 10:59:49;;;;;;;9.32;3.28;;;;;;;;;;5037974;28;20080;-47
2022/05/20 11:02:21;;;;;;;7.63;3.75;;;;;;;;;;5038689;28;20134;-52
2022/05/20 11:04:55;;;;;;;6.82;3.33;;;;;;;;;;5036871;28;20045;-57
2022/05/20 11:07:40;;;;;;;9.45;3.90;;;;;;;;;;5037494;28;20123;-57
2022/05/20 11:10:35;;;;;;;5.90;3.50;;;;;;;;;;5039205;28;20459;-56
2022/05/20 11:13:01;;;;;;;8.30;3.55;;;;;;;;;;5035221;28;20072;-58
2022/05/20 11:15:46;;;;;;;8.02;3.50;;;;;;;;;;5036329;28;20785;-57
2022/05/20 11:18:26;;;;;;;6.53;3.70;;;;;;;;;;5037907;28;20153;-54
2022/05/20 11:20:59;;;;;;;8.98;3.60;;;;;;;;;;5036346;28;20081;-51
2022/05/20 11:23:26;;;;;;;4.82;2.60;;;;;;;;;;5035186;28;20516;-57
2022/05/20 11:26:07;;;;;;;5.25;2.92;;;;;;;;;;5038297;28;20091;-55
2022/05/20 11:28:52;;;;;;;7.65;3.00;;;;;;;;;;5035533;28;20080;-57
2022/05/20 11:31:38;;;;;;;4.68;3.10;;;;;;;;;;5035865;28;20188;-57
2022/05/20 11:34:12;;;;;;;8.10;2.92;;;;;;;;;;5037073;28;20052;-58
2022/05/20 11:37:03;;;;;;;7.78;2.55;;;;;;;;;;5037937;28;20119;-57
2022/05/20 11:39:51;;;;;;;7.30;2.90;;;;;;;;;;5035888;28;20084;-54
2022/05/20 11:42:21;;;;;;;7.18;3.25;;;;;;;;;;5036276;28;20081;-56
2022/05/20 11:45:10;;;;;;;6.00;2.75;;;;;;;;;;5036998;28;20053;-55
2022/05/20 11:47:43;;;;;;;5.03;2.20;;;;;;;;;;5032722;28;20057;-57
2022/05/20 11:50:20;;;;;;;6.13;2.40;;;;;;;;;;5035970;28;20085;-58
2022/05/20 11:52:59;;;;;;;6.47;2.28;;;;;;;;;;5032862;28;20084;-58
2022/05/20 11:55:41;;;;;;;4.70;2.30;;;;;;;;;;5040905;28;20084;-58
2022/05/20 11:58:11;;;;;;;8.05;2.83;;;;;;;;;;5035286;28;20099;-50
2022/05/20 12:00:43;;;;;;;6.38;2.40;;;;;;;;;;5038356;28;20095;-50
2022/05/20 12:03:17;;;;;;;4.03;2.07;;;;;;;;;;5037599;28;20034;-57
2022/05/20 12:05:51;;;;;;;3.45;2.15;;;;;;;;;;5037214;28;20049;-57
2022/05/20 12:08:36;;;;;;;8.40;2.40;;;;;;;;;;5040162;28;20100;-58
2022/05/20 12:11:28;;;;;;;9.13;2.50;;;;;;;;;;5043878;28;20120;-56
2022/05/20 12:14:03;;;;;;;5.05;2.50;;;;;;;;;;5039890;28;20084;-57
2022/05/20 12:16:54;;;;;;;8.10;2.58;;;;;;;;;;5037815;28;20102;-51
2022/05/20 12:25:29;;;;;;;5.82;2.90;;;;;;;;;;5041754;28;20049;-57
2022/05/20 12:28:02;;;;;;;7.63;3.03;;;;;;;;;;5042018;28;20057;-57
2022/05/20 12:30:35;;;;;;;10.63;3.00;;;;;;;;;;5042581;28;20053;-57
2022/05/20 12:33:18;;;;;;;6.03;2.50;;;;;;;;;;5042169;28;20077;-58
2022/05/20 12:36:23;;;;;;;6.00;2.65;;;;;;;;;;5039531;28;20049;-55
2022/05/20 12:39:12;;;;;;;7.22;2.97;;;;;;;;;;5039682;28;20049;-58
2022/05/20 12:41:48;;;;;;;6.90;2.40;;;;;;;;;;5038384;28;20478;-51
2022/05/20 12:44:18;;;;;;;5.53;2.70;;;;;;;;;;5037779;28;20103;-46
2022/05/20 12:47:03;;;;;;;6.68;2.78;;;;;;;;;;5037153;28;20053;-47
2022/05/20 12:49:49;;;;;;;8.30;2.30;;;;;;;;;;5042687;28;20128;-53
2022/05/20 12:52:26;;;;;;;9.32;2.72;;;;;;;;;;5037814;28;20073;-49
2022/05/20 12:55:01;;;;;;;4.53;2.25;;;;;;;;;;5039634;28;20087;-52
2022/05/20 12:57:32;;;;;;;5.97;2.25;;;;;;;;;;5040299;28;20049;-57
2022/05/20 13:00:04;;;;;;;5.07;2.15;;;;;;;;;;5040849;28;20057;-57
2022/05/20 13:02:52;;;;;;;6.93;2.60;;;;;;;;;;5039558;28;20135;-59
2022/05/20 13:05:30;;;;;;;7.10;2.58;;;;;;;;;;5039863;28;20077;-57
2022/05/20 13:08:08;;;;;;;7.60;2.95;;;;;;;;;;5036698;28;20134;-58
2022/05/20 13:10:35;;;;;;;4.78;2.10;;;;;;;;;;5037371;28;20053;-57
2022/05/20 13:13:05;;;;;;;9.05;2.33;;;;;;;;;;5038438;28;20546;-58
2022/05/20 13:15:39;;;;;;;7.05;2.55;;;;;;;;;;5040648;28;20455;-53
2022/05/20 13:18:10;;;;;;;4.68;1.85;;;;;;;;;;5037449;28;20045;-50
2022/05/20 13:20:37;;;;;;;9.82;2.42;;;;;;;;;;5040017;28;20124;-50
2022/05/20 13:23:16;;;;;;;7.63;2.50;;;;;;;;;;5039960;28;20053;-51
2022/05/20 13:25:43;;;;;;;6.80;2.25;;;;;;;;;;5039038;28;20077;-53
2022/05/20 13:28:09;;;;;;;7.13;2.17;;;;;;;;;;5041299;28;20571;-51
2022/05/20 13:30:42;;;;;;;7.25;2.20;;;;;;;;;;5037373;28;20050;-50
2022/05/20 13:33:10;;;;;;;5.60;1.90;;;;;;;;;;5039646;28;20042;-54
2022/05/20 13:35:45;;;;;;;4.53;2.05;;;;;;;;;;5038324;28;20147;-58
2022/05/20 13:38:27;;;;;;;7.30;2.00;;;;;;;;;;5042528;28;20080;-53
2022/05/20 13:40:54;;;;;;;5.43;1.83;;;;;;;;;;5037520;28;20085;-52
2022/05/20 13:43:33;;;;;;;5.00;1.90;;;;;;;;;;5039883;28;20057;-56
2022/05/20 13:49:14;;;;;;;7.53;2.30;;;;;;;;;;5043051;28;20041;-55
2022/05/20 13:51:43;;;;;;;6.03;2.20;;;;;;;;;;5040299;28;20111;-52
2022/05/20 13:54:18;;;;;;;6.35;2.33;;;;;;;;;;5040843;28;20053;-54
2022/05/20 13:56:46;;;;;;;7.70;2.45;;;;;;;;;;5036847;28;20322;-53
2022/05/20 13:59:28;;;;;;;8.68;2.50;;;;;;;;;;5033308;28;20493;-53
2022/05/20 14:02:07;;;;;;;6.60;3.00;;;;;;;;;;5040118;28;20488;-53
2022/05/20 14:04:34;;;;;;;6.90;2.72;;;;;;;;;;5038227;28;20053;-54
2022/05/20 14:07:02;;;;;;;9.67;3.17;;;;;;;;;;5040378;28;20401;-53
2022/05/20 14:09:40;;;;;;;7.78;3.05;;;;;;;;;;5040038;28;20099;-48
2022/05/20 14:12:14;;;;;;;9.82;2.80;;;;;;;;;;5036712;28;20045;-57
2022/05/20 14:14:58;;;;;;;11.07;2.70;;;;;;;;;;5039743;28;20130;-45
2022/05/20 14:17:25;;;;;;;10.02;2.55;;;;;;;;;;5039113;28;20084;-51
2022/05/20 14:20:01;;;;;;;9.23;2.30;;;;;;;;;;5033060;28;20057;-51
2022/05/20 14:22:30;;;;;;;9.23;2.40;;;;;;;;;;5040311;28;20084;-50
2022/05/20 14:24:58;;;;;;;7.88;2.30;;;;;;;;;;5038024;28;20115;-47
2022/05/20 14:27:39;;;;;;;11.40;3.25;;;;;;;;;;5041522;28;20049;-47
2022/05/20 14:30:32;;;;;;;7.13;2.67;;;;;;;;;;5039790;28;20052;-51
2022/05/20 14:33:13;;;;;;;8.07;3.15;;;;;;;;;;5040854;28;20046;-58
2022/05/20 14:35:42;;;;;;;9.32;2.58;;;;;;;;;;5039256;28;20056;-51
2022/05/20 14:38:25;;;;;;;7.95;2.53;;;;;;;;;;5039126;28;20053;-52
2022/05/20 14:40:53;;;;;;;13.38;3.50;;;;;;;;;;5037502;28;20053;-50
2022/05/20 14:43:30;;;;;;;10.40;2.85;;;;;;;;;;5037842;28;20049;-53
2022/05/20 14:45:58;;;;;;;11.80;3.15;;;;;;;;;;5037788;28;20053;-52
2022/05/20 14:48:37;;;;;;;11.82;3.05;;;;;;;;;;5036042;28;20424;-51
2022/05/20 14:51:28;;;;;;;6.85;2.20;;;;;;;;;;5037069;28;20152;-52
2022/05/20 14:54:03;;;;;;;10.30;3.10;;;;;;;;;;5039171;28;20058;-56
2022/05/20 14:56:36;;;;;;;11.30;2.78;;;;;;;;;;5038261;28;20072;-56
2022/05/20 14:59:03;;;;;;;13.10;2.80;;;;;;;;;;5038025;28;20052;-56
2022/05/20 15:01:31;;;;;;;10.85;2.63;;;;;;;;;;5036803;28;20091;-57
2022/05/20 15:04:04;;;;;;;10.05;2.70;;;;;;;;;;5035282;28;20052;-58
2022/05/20 15:06:36;;;;;;;13.57;3.05;;;;;;;;;;5034851;28;20496;-56
2022/05/20 15:09:07;;;;;;;11.15;2.55;;;;;;;;;;5035994;28;20137;-55
2022/05/20 15:11:40;;;;;;;9.30;2.72;;;;;;;;;;5035820;28;20084;-53
2022/05/20 15:14:07;;;;;;;8.88;2.92;;;;;;;;;;5038514;28;20088;-48
2022/05/20 15:16:34;;;;;;;7.93;2.85;;;;;;;;;;5036132;28;20076;-51
2022/05/20 15:19:08;;;;;;;8.27;2.80;;;;;;;;;;5036210;28;20092;-51
2022/05/20 15:21:35;;;;;;;;;;;;;;;;;;5038639;28;20054;-49
2022/05/20 15:24:07;;;;;;;12.40;3.22;;;;;;;;;;5034960;28;19980;-50
2022/05/20 15:26:41;;;;;;;10.30;2.70;;;;;;;;;;5036926;28;20123;-52
2022/05/20 15:29:07;;;;;;;13.25;2.90;;;;;;;;;;5037322;28;20053;-50
2022/05/20 15:37:23;;;;;;;12.00;3.55;;;;;;;;;;5036887;28;20577;-58
2022/05/20 15:40:15;;;;;;;11.02;3.05;;;;;;;;;;5038055;28;20041;-58
2022/05/20 15:42:42;;;;;;;12.80;3.20;;;;;;;;;;5042029;28;20115;-54
2022/05/20 15:45:17;;;;;;;15.50;4.38;;;;;;;;;;5040665;28;20045;-58
2022/05/20 15:47:44;;;;;;;11.48;3.20;;;;;;;;;;5041930;28;20080;-49
2022/05/20 15:50:12;;;;;;;10.65;3.05;;;;;;;;;;5040214;28;20515;-51
2022/05/20 15:52:48;;;;;;;14.02;3.65;;;;;;;;;;5041844;28;20057;-49
2022/05/20 15:55:17;;;;;;;14.63;3.70;;;;;;;;;;5042406;28;20075;-51
2022/05/20 15:57:44;;;;;;;11.27;3.22;;;;;;;;;;5041088;28;20099;-53